createdAt,value
2022-11-30T00:00:32.875Z,94.09
2022-11-30T00:01:32.453Z,93.98
2022-11-30T00:02:32.588Z,93.98
2022-11-30T00:03:32.445Z,93.78
2022-11-30T00:04:32.519Z,93.68
2022-11-30T00:05:32.483Z,93.68
2022-11-30T00:06:32.509Z,93.57
2022-11-30T00:07:32.447Z,93.57
2022-11-30T00:08:32.349Z,93.68
2022-11-30T00:09:32.451Z,93.68
2022-11-30T00:10:32.346Z,93.47
2022-11-30T00:11:32.519Z,93.47
2022-11-30T00:12:32.356Z,93.47
2022-11-30T00:13:32.305Z,93.37
2022-11-30T00:14:32.363Z,93.41
2022-11-30T00:15:32.283Z,93.51
2022-11-30T00:16:32.561Z,93.51
2022-11-30T00:17:32.376Z,93.62
2022-11-30T00:18:32.223Z,93.68
2022-11-30T00:19:32.332Z,93.72
2022-11-30T00:20:32.202Z,93.72
2022-11-30T00:21:32.465Z,93.68
2022-11-30T00:22:32.209Z,94.40
2022-11-30T00:23:32.292Z,94.29
2022-11-30T00:24:32.158Z,94.09
2022-11-30T00:25:32.258Z,93.98
2022-11-30T00:26:32.120Z,93.68
2022-11-30T00:27:32.259Z,93.47
2022-11-30T00:28:32.132Z,93.47
2022-11-30T00:29:32.193Z,93.37
2022-11-30T00:30:32.096Z,93.37
2022-11-30T00:31:32.201Z,93.26
2022-11-30T00:32:32.037Z,93.26
2022-11-30T00:33:32.207Z,93.26
2022-11-30T00:34:32.037Z,93.16
2022-11-30T00:35:32.130Z,93.26
2022-11-30T00:36:32.000Z,93.26
2022-11-30T00:37:32.126Z,93.37
2022-11-30T00:38:32.067Z,93.37
2022-11-30T00:39:35.452Z,93.51
2022-11-30T00:40:32.039Z,93.51
2022-11-30T00:41:31.941Z,93.51
2022-11-30T00:42:32.040Z,93.51
2022-11-30T00:43:32.135Z,93.51
2022-11-30T00:44:31.915Z,93.51
2022-11-30T00:45:32.083Z,93.62
2022-11-30T00:46:31.927Z,93.62
2022-11-30T00:47:32.109Z,93.62
2022-11-30T00:48:31.840Z,93.62
2022-11-30T00:49:31.986Z,93.72
2022-11-30T00:50:31.810Z,93.72
2022-11-30T00:51:32.026Z,93.82
2022-11-30T00:52:31.808Z,93.72
2022-11-30T00:53:31.961Z,93.72
2022-11-30T00:54:31.778Z,94.03
2022-11-30T00:55:31.896Z,94.03
2022-11-30T00:56:31.737Z,94.23
2022-11-30T00:57:31.933Z,94.23
2022-11-30T00:58:31.730Z,94.13
2022-11-30T00:59:31.779Z,93.93
2022-11-30T01:00:31.714Z,93.72
2022-11-30T01:01:31.929Z,93.72
2022-11-30T01:02:31.671Z,93.78
2022-11-30T01:03:31.801Z,93.57
2022-11-30T01:04:31.695Z,93.62
2022-11-30T01:05:31.640Z,93.93
2022-11-30T01:06:31.745Z,93.88
2022-11-30T01:07:31.687Z,93.88
2022-11-30T01:08:31.732Z,94.09
2022-11-30T01:09:31.736Z,94.09
2022-11-30T01:10:31.571Z,93.88
2022-11-30T01:11:31.661Z,93.78
2022-11-30T01:12:31.575Z,93.88
2022-11-30T01:13:31.678Z,93.68
2022-11-30T01:14:31.530Z,93.68
2022-11-30T01:15:31.621Z,93.57
2022-11-30T01:16:31.477Z,93.47
2022-11-30T01:17:31.644Z,93.37
2022-11-30T01:18:31.454Z,93.26
2022-11-30T01:19:31.595Z,93.26
2022-11-30T01:20:31.432Z,93.47
2022-11-30T01:21:31.529Z,93.47
2022-11-30T01:22:31.439Z,93.47
2022-11-30T01:23:31.556Z,93.62
2022-11-30T01:24:31.366Z,94.09
2022-11-30T01:25:31.552Z,94.40
2022-11-30T01:26:31.358Z,94.29
2022-11-30T01:27:31.456Z,93.88
2022-11-30T01:28:31.973Z,93.26
2022-11-30T01:29:31.466Z,92.99
2022-11-30T01:30:31.452Z,92.99
2022-11-30T01:31:31.334Z,93.20
2022-11-30T01:32:31.385Z,93.41
2022-11-30T01:33:31.304Z,93.51
2022-11-30T01:34:31.411Z,93.62
2022-11-30T01:35:31.469Z,93.72
2022-11-30T01:36:31.218Z,93.82
2022-11-30T01:37:31.434Z,93.93
2022-11-30T01:38:31.209Z,94.13
2022-11-30T01:39:31.336Z,94.13
2022-11-30T01:40:31.176Z,94.03
2022-11-30T01:41:31.313Z,94.03
2022-11-30T01:42:31.148Z,94.03
2022-11-30T01:43:31.256Z,94.03
2022-11-30T01:44:31.112Z,94.13
2022-11-30T01:45:31.350Z,94.23
2022-11-30T01:46:31.128Z,94.23
2022-11-30T01:47:31.194Z,94.28
2022-11-30T01:48:31.051Z,94.44
2022-11-30T01:49:31.226Z,94.54
2022-11-30T01:50:31.038Z,94.44
2022-11-30T01:51:31.169Z,94.44
2022-11-30T01:52:31.026Z,94.44
2022-11-30T01:53:31.144Z,94.48
2022-11-30T01:54:30.992Z,94.38
2022-11-30T01:55:31.196Z,94.48
2022-11-30T01:56:31.255Z,94.48
2022-11-30T01:57:31.020Z,94.48
2022-11-30T01:58:31.057Z,94.59
2022-11-30T01:59:30.966Z,94.59
2022-11-30T02:00:31.310Z,94.69
2022-11-30T02:01:31.174Z,94.69
2022-11-30T02:02:31.055Z,94.79
2022-11-30T02:03:31.362Z,94.90
2022-11-30T02:04:30.882Z,95.00
2022-11-30T02:05:31.103Z,95.00
2022-11-30T02:06:30.870Z,95.10
2022-11-30T02:07:31.167Z,95.10
2022-11-30T02:08:30.977Z,95.10
2022-11-30T02:09:30.929Z,95.10
2022-11-30T02:10:30.785Z,95.21
2022-11-30T02:11:30.983Z,95.21
2022-11-30T02:12:30.760Z,95.10
2022-11-30T02:13:30.872Z,95.10
2022-11-30T02:14:30.764Z,95.21
2022-11-30T02:15:30.903Z,95.21
2022-11-30T02:16:30.717Z,95.10
2022-11-30T02:17:30.913Z,95.10
2022-11-30T02:18:30.691Z,95.21
2022-11-30T02:19:30.841Z,95.21
2022-11-30T02:20:30.660Z,95.10
2022-11-30T02:21:30.840Z,95.10
2022-11-30T02:22:30.650Z,95.10
2022-11-30T02:23:30.828Z,95.00
2022-11-30T02:24:30.603Z,95.00
2022-11-30T02:25:30.973Z,95.00
2022-11-30T02:26:30.612Z,95.00
2022-11-30T02:27:30.853Z,95.00
2022-11-30T02:28:30.608Z,95.10
2022-11-30T02:29:30.654Z,95.17
2022-11-30T02:30:30.537Z,95.06
2022-11-30T02:31:30.785Z,94.96
2022-11-30T02:32:30.502Z,94.90
2022-11-30T02:33:30.598Z,94.79
2022-11-30T02:34:30.484Z,94.79
2022-11-30T02:35:30.614Z,94.79
2022-11-30T02:36:30.475Z,94.79
2022-11-30T02:37:30.640Z,94.79
2022-11-30T02:38:30.419Z,94.90
2022-11-30T02:39:30.685Z,95.00
2022-11-30T02:40:30.427Z,95.10
2022-11-30T02:41:34.979Z,95.10
2022-11-30T02:42:30.389Z,95.21
2022-11-30T02:43:30.506Z,95.10
2022-11-30T02:44:30.373Z,95.10
2022-11-30T02:45:30.480Z,95.10
2022-11-30T02:46:30.370Z,95.21
2022-11-30T02:47:30.498Z,95.10
2022-11-30T02:48:30.344Z,95.10
2022-11-30T02:49:30.493Z,95.10
2022-11-30T02:50:30.280Z,95.10
2022-11-30T02:51:30.453Z,95.21
2022-11-30T02:52:30.264Z,95.31
2022-11-30T02:53:30.432Z,95.31
2022-11-30T02:54:30.220Z,95.31
2022-11-30T02:55:30.445Z,95.21
2022-11-30T02:56:30.216Z,95.10
2022-11-30T02:57:30.451Z,95.10
2022-11-30T02:58:30.178Z,95.21
2022-11-30T02:59:30.260Z,95.21
2022-11-30T03:00:30.271Z,95.31
2022-11-30T03:01:30.381Z,95.31
2022-11-30T03:02:30.187Z,95.31
2022-11-30T03:03:30.395Z,95.31
2022-11-30T03:04:30.134Z,95.31
2022-11-30T03:05:30.208Z,95.31
2022-11-30T03:06:30.073Z,95.42
2022-11-30T03:07:30.288Z,95.42
2022-11-30T03:08:30.063Z,95.42
2022-11-30T03:09:30.234Z,95.52
2022-11-30T03:10:30.056Z,95.52
2022-11-30T03:11:30.256Z,95.31
2022-11-30T03:12:30.040Z,95.21
2022-11-30T03:13:30.153Z,95.10
2022-11-30T03:14:30.053Z,95.10
2022-11-30T03:15:29.980Z,95.00
2022-11-30T03:16:30.061Z,95.00
2022-11-30T03:17:29.996Z,94.90
2022-11-30T03:18:30.072Z,94.90
2022-11-30T03:19:29.931Z,94.90
2022-11-30T03:20:30.137Z,94.90
2022-11-30T03:21:29.913Z,95.00
2022-11-30T03:22:30.015Z,95.00
2022-11-30T03:23:29.878Z,95.00
2022-11-30T03:24:30.028Z,95.00
2022-11-30T03:25:30.083Z,95.00
2022-11-30T03:26:30.078Z,95.10
2022-11-30T03:27:29.848Z,95.10
2022-11-30T03:28:29.950Z,95.10
2022-11-30T03:29:29.805Z,95.10
2022-11-30T03:30:29.988Z,95.10
2022-11-30T03:31:29.875Z,95.10
2022-11-30T03:32:29.969Z,95.10
2022-11-30T03:33:29.756Z,95.10
2022-11-30T03:34:29.880Z,95.21
2022-11-30T03:35:29.779Z,95.21
2022-11-30T03:36:29.896Z,95.21
2022-11-30T03:37:29.750Z,95.10
2022-11-30T03:38:29.907Z,95.10
2022-11-30T03:39:29.672Z,95.10
2022-11-30T03:40:29.766Z,95.10
2022-11-30T03:41:29.657Z,95.10
2022-11-30T03:42:29.726Z,95.10
2022-11-30T03:43:29.652Z,95.10
2022-11-30T03:45:19.972Z,95.21
2022-11-30T03:46:21.100Z,95.21
2022-11-30T03:47:21.669Z,95.21
2022-11-30T03:48:21.094Z,95.31
2022-11-30T03:49:20.895Z,95.31
2022-11-30T03:50:21.015Z,95.31
2022-11-30T03:51:20.870Z,95.31
2022-11-30T03:52:21.021Z,95.31
2022-11-30T03:53:20.874Z,95.31
2022-11-30T03:54:21.023Z,95.21
2022-11-30T03:55:20.812Z,95.21
2022-11-30T03:56:21.056Z,95.31
2022-11-30T03:57:20.788Z,95.31
2022-11-30T03:58:20.847Z,95.31
2022-11-30T03:59:20.805Z,95.21
2022-11-30T04:00:20.952Z,95.31
2022-11-30T04:01:20.758Z,95.42
2022-11-30T04:02:20.921Z,95.37
2022-11-30T04:03:20.714Z,95.27
2022-11-30T04:04:20.788Z,95.17
2022-11-30T04:05:20.716Z,94.96
2022-11-30T04:06:20.817Z,94.79
2022-11-30T04:07:20.686Z,94.65
2022-11-30T04:08:20.866Z,94.69
2022-11-30T04:09:20.638Z,94.69
2022-11-30T04:10:20.840Z,94.69
2022-11-30T04:11:20.831Z,94.69
2022-11-30T04:12:20.614Z,94.79
2022-11-30T04:13:20.790Z,94.79
2022-11-30T04:14:20.616Z,94.90
2022-11-30T04:15:20.756Z,94.90
2022-11-30T04:16:20.694Z,95.00
2022-11-30T04:17:20.661Z,95.31
2022-11-30T04:18:20.533Z,95.52
2022-11-30T04:19:20.606Z,95.42
2022-11-30T04:20:20.526Z,95.21
2022-11-30T04:21:20.587Z,95.21
2022-11-30T04:22:20.484Z,95.21
2022-11-30T04:23:20.500Z,95.21
2022-11-30T04:24:20.458Z,95.06
2022-11-30T04:25:20.575Z,94.96
2022-11-30T04:26:20.425Z,94.75
2022-11-30T04:27:20.534Z,94.75
2022-11-30T04:28:20.521Z,94.75
2022-11-30T04:29:20.592Z,94.65
2022-11-30T04:30:20.396Z,94.54
2022-11-30T04:31:20.601Z,94.75
2022-11-30T04:32:20.360Z,94.85
2022-11-30T04:33:20.371Z,94.96
2022-11-30T04:34:20.354Z,94.96
2022-11-30T04:35:20.429Z,94.75
2022-11-30T04:36:20.337Z,95.06
2022-11-30T04:37:20.387Z,95.17
2022-11-30T04:38:20.285Z,94.96
2022-11-30T04:39:20.404Z,94.75
2022-11-30T04:40:20.262Z,94.54
2022-11-30T04:41:20.470Z,94.34
2022-11-30T04:42:20.294Z,94.23
2022-11-30T04:43:20.193Z,94.13
2022-11-30T04:44:20.255Z,94.03
2022-11-30T04:45:20.169Z,93.93
2022-11-30T04:46:20.355Z,93.93
2022-11-30T04:47:20.144Z,93.93
2022-11-30T04:48:20.278Z,94.13
2022-11-30T04:49:20.124Z,94.34
2022-11-30T04:50:20.301Z,94.44
2022-11-30T04:51:20.130Z,94.44
2022-11-30T04:52:20.202Z,94.44
2022-11-30T04:53:20.086Z,94.65
2022-11-30T04:54:20.268Z,94.54
2022-11-30T04:55:20.036Z,94.44
2022-11-30T04:56:20.125Z,94.23
2022-11-30T04:57:20.054Z,94.23
2022-11-30T04:58:20.141Z,94.44
2022-11-30T04:59:20.121Z,94.34
2022-11-30T05:00:20.226Z,94.65
2022-11-30T05:01:20.034Z,94.85
2022-11-30T05:02:20.070Z,94.85
2022-11-30T05:03:20.112Z,94.96
2022-11-30T05:04:20.015Z,94.96
2022-11-30T05:05:20.086Z,94.85
2022-11-30T05:06:19.928Z,94.65
2022-11-30T05:07:20.019Z,94.65
2022-11-30T05:08:20.017Z,94.54
2022-11-30T05:09:19.871Z,94.65
2022-11-30T05:10:20.086Z,94.75
2022-11-30T05:11:19.858Z,94.65
2022-11-30T05:12:20.049Z,94.54
2022-11-30T05:13:19.810Z,94.65
2022-11-30T05:14:19.988Z,94.75
2022-11-30T05:15:19.792Z,94.65
2022-11-30T05:16:19.891Z,94.85
2022-11-30T05:17:19.750Z,95.17
2022-11-30T05:18:19.929Z,95.17
2022-11-30T05:19:19.779Z,95.06
2022-11-30T05:20:19.896Z,94.96
2022-11-30T05:21:19.703Z,94.75
2022-11-30T05:22:19.804Z,94.65
2022-11-30T05:23:19.694Z,94.54
2022-11-30T05:24:19.969Z,94.69
2022-11-30T05:25:19.664Z,94.85
2022-11-30T05:26:19.833Z,94.79
2022-11-30T05:27:22.676Z,94.79
2022-11-30T05:28:19.758Z,94.90
2022-11-30T05:29:19.614Z,95.21
2022-11-30T05:30:19.779Z,95.10
2022-11-30T05:31:19.691Z,95.21
2022-11-30T05:32:19.736Z,95.10
2022-11-30T05:33:19.580Z,95.21
2022-11-30T05:34:19.688Z,95.21
2022-11-30T05:35:19.552Z,95.10
2022-11-30T05:36:19.641Z,95.00
2022-11-30T05:37:19.505Z,95.42
2022-11-30T05:38:19.637Z,95.42
2022-11-30T05:39:19.500Z,95.42
2022-11-30T05:40:19.613Z,95.62
2022-11-30T05:41:19.485Z,95.42
2022-11-30T05:42:19.686Z,95.27
2022-11-30T05:43:19.424Z,95.06
2022-11-30T05:44:19.644Z,95.06
2022-11-30T05:45:19.627Z,94.65
2022-11-30T05:46:19.606Z,94.48
2022-11-30T05:47:19.421Z,94.59
2022-11-30T05:48:19.583Z,94.59
2022-11-30T05:49:19.424Z,94.75
2022-11-30T05:50:19.818Z,94.96
2022-11-30T05:51:19.451Z,95.06
2022-11-30T05:52:20.011Z,94.85
2022-11-30T05:53:20.139Z,94.54
2022-11-30T05:54:19.526Z,94.44
2022-11-30T05:55:19.841Z,94.23
2022-11-30T05:56:19.913Z,94.34
2022-11-30T05:57:19.667Z,94.13
2022-11-30T05:58:19.598Z,93.93
2022-11-30T05:59:19.979Z,93.82
2022-11-30T06:00:19.882Z,93.93
2022-11-30T06:01:19.869Z,94.03
2022-11-30T06:02:25.142Z,94.28
2022-11-30T06:03:19.433Z,94.44
2022-11-30T06:04:19.981Z,94.54
2022-11-30T06:05:19.435Z,94.75
2022-11-30T06:06:19.267Z,94.75
2022-11-30T06:07:19.581Z,94.65
2022-11-30T06:08:19.252Z,94.65
2022-11-30T06:09:19.349Z,94.85
2022-11-30T06:10:19.115Z,95.06
2022-11-30T06:11:19.218Z,95.06
2022-11-30T06:12:19.114Z,94.75
2022-11-30T06:13:19.232Z,94.65
2022-11-30T06:14:19.090Z,94.85
2022-11-30T06:15:19.169Z,94.81
2022-11-30T06:16:19.121Z,94.40
2022-11-30T06:17:19.274Z,94.19
2022-11-30T06:18:19.016Z,93.98
2022-11-30T06:19:19.168Z,94.03
2022-11-30T06:20:18.974Z,93.82
2022-11-30T06:21:24.139Z,93.93
2022-11-30T06:22:18.970Z,94.03
2022-11-30T06:23:19.016Z,94.13
2022-11-30T06:24:18.946Z,94.13
2022-11-30T06:25:19.053Z,94.03
2022-11-30T06:26:19.040Z,94.23
2022-11-30T06:27:19.159Z,94.34
2022-11-30T06:28:19.093Z,94.40
2022-11-30T06:29:18.863Z,94.23
2022-11-30T06:30:19.037Z,93.88
2022-11-30T06:31:18.972Z,93.72
2022-11-30T06:32:18.843Z,93.62
2022-11-30T06:33:18.966Z,93.62
2022-11-30T06:34:19.003Z,93.82
2022-11-30T06:35:18.935Z,93.82
2022-11-30T06:36:18.971Z,93.93
2022-11-30T06:37:18.923Z,94.03
2022-11-30T06:38:18.756Z,94.23
2022-11-30T06:39:36.672Z,94.13
2022-11-30T06:40:19.063Z,94.03
2022-11-30T06:41:18.689Z,94.34
2022-11-30T06:42:18.900Z,94.44
2022-11-30T06:43:18.654Z,94.13
2022-11-30T06:44:19.391Z,94.13
2022-11-30T06:45:18.724Z,94.34
2022-11-30T06:46:18.909Z,94.13
2022-11-30T06:47:19.426Z,94.13
2022-11-30T06:48:19.742Z,94.03
2022-11-30T06:49:18.663Z,93.93
2022-11-30T06:50:18.615Z,94.13
2022-11-30T06:51:18.731Z,94.13
2022-11-30T06:52:18.606Z,94.13
2022-11-30T06:53:18.756Z,94.13
2022-11-30T06:54:18.554Z,93.82
2022-11-30T06:55:18.707Z,93.93
2022-11-30T06:56:18.555Z,94.54
2022-11-30T06:57:18.714Z,94.13
2022-11-30T06:58:18.501Z,93.93
2022-11-30T06:59:18.590Z,93.93
2022-11-30T07:00:18.744Z,94.07
2022-11-30T07:01:18.622Z,94.07
2022-11-30T07:02:18.941Z,94.28
2022-11-30T07:03:18.625Z,94.38
2022-11-30T07:04:18.477Z,94.48
2022-11-30T07:05:18.561Z,94.69
2022-11-30T07:06:18.443Z,94.85
2022-11-30T07:07:18.649Z,94.65
2022-11-30T07:08:18.390Z,94.54
2022-11-30T07:09:18.594Z,94.75
2022-11-30T07:10:20.313Z,94.75
2022-11-30T07:11:18.497Z,94.44
2022-11-30T07:12:18.326Z,94.44
2022-11-30T07:13:18.425Z,94.54
2022-11-30T07:14:18.286Z,94.23
2022-11-30T07:15:18.340Z,94.13
2022-11-30T07:16:18.394Z,94.23
2022-11-30T07:17:18.516Z,94.19
2022-11-30T07:18:18.307Z,94.09
2022-11-30T07:19:18.356Z,93.98
2022-11-30T07:20:18.659Z,93.98
2022-11-30T07:21:18.292Z,93.68
2022-11-30T07:22:18.171Z,93.37
2022-11-30T07:23:18.324Z,93.16
2022-11-30T07:24:18.633Z,93.16
2022-11-30T07:25:18.325Z,93.05
2022-11-30T07:26:18.150Z,92.74
2022-11-30T07:27:18.235Z,92.95
2022-11-30T07:28:18.301Z,93.05
2022-11-30T07:29:18.461Z,93.16
2022-11-30T07:30:18.245Z,93.16
2022-11-30T07:31:18.166Z,92.85
2022-11-30T07:32:19.107Z,92.95
2022-11-30T07:33:18.042Z,92.95
2022-11-30T07:34:18.265Z,92.85
2022-11-30T07:35:18.104Z,92.74
2022-11-30T07:36:18.318Z,92.85
2022-11-30T07:37:18.347Z,92.64
2022-11-30T07:38:18.292Z,92.64
2022-11-30T07:39:18.047Z,92.33
2022-11-30T07:40:18.133Z,92.44
2022-11-30T07:41:17.983Z,92.23
2022-11-30T07:42:18.163Z,92.13
2022-11-30T07:43:17.925Z,92.23
2022-11-30T07:44:18.218Z,92.44
2022-11-30T07:45:17.919Z,92.74
2022-11-30T07:46:18.318Z,92.79
2022-11-30T07:47:18.558Z,92.79
2022-11-30T07:48:18.495Z,92.99
2022-11-30T07:49:18.508Z,93.30
2022-11-30T07:50:18.043Z,93.41
2022-11-30T07:51:18.034Z,93.62
2022-11-30T07:52:18.253Z,93.82
2022-11-30T07:53:18.147Z,93.98
2022-11-30T07:54:18.238Z,93.82
2022-11-30T07:55:18.005Z,93.68
2022-11-30T07:56:17.743Z,93.68
2022-11-30T07:57:18.026Z,93.57
2022-11-30T07:58:17.800Z,93.37
2022-11-30T07:59:18.274Z,93.47
2022-11-30T08:00:18.509Z,93.78
2022-11-30T08:01:18.612Z,93.57
2022-11-30T08:02:18.498Z,93.78
2022-11-30T08:03:18.511Z,93.78
2022-11-30T08:04:18.681Z,93.68
2022-11-30T08:05:19.146Z,93.57
2022-11-30T08:06:18.434Z,93.37
2022-11-30T08:07:18.948Z,93.68
2022-11-30T08:08:18.557Z,93.47
2022-11-30T08:09:20.879Z,93.37
2022-11-30T08:10:18.705Z,93.88
2022-11-30T08:11:18.093Z,94.19
2022-11-30T08:12:18.329Z,93.98
2022-11-30T08:13:18.107Z,93.68
2022-11-30T08:14:18.505Z,93.78
2022-11-30T08:15:20.321Z,93.47
2022-11-30T08:16:17.962Z,93.26
2022-11-30T08:17:17.917Z,92.85
2022-11-30T08:18:17.877Z,93.10
2022-11-30T08:19:18.874Z,93.41
2022-11-30T08:20:17.930Z,93.72
2022-11-30T08:21:18.274Z,93.93
2022-11-30T08:22:18.299Z,94.03
2022-11-30T08:23:18.881Z,94.23
2022-11-30T08:24:18.672Z,94.34
2022-11-30T08:25:18.055Z,94.40
2022-11-30T08:26:18.485Z,94.09
2022-11-30T08:27:18.252Z,92.85
2022-11-30T08:28:17.950Z,92.23
2022-11-30T08:29:18.721Z,92.64
2022-11-30T08:30:17.872Z,93.16
2022-11-30T08:31:18.241Z,93.57
2022-11-30T08:32:17.888Z,92.70
2022-11-30T08:33:17.950Z,92.19
2022-11-30T08:34:17.926Z,92.19
2022-11-30T08:35:17.555Z,92.19
2022-11-30T08:36:18.421Z,92.08
2022-11-30T08:37:17.942Z,91.73
2022-11-30T08:38:17.910Z,91.73
2022-11-30T08:39:18.539Z,91.11
2022-11-30T08:40:17.849Z,91.11
2022-11-30T08:41:18.108Z,91.01
2022-11-30T08:42:17.602Z,90.91
2022-11-30T08:43:17.274Z,91.42
2022-11-30T08:44:17.941Z,91.32
2022-11-30T08:45:17.318Z,91.11
2022-11-30T08:47:18.159Z,91.11
2022-11-30T08:48:18.382Z,91.01
2022-11-30T08:49:22.130Z,90.19
2022-11-30T08:50:17.683Z,89.77
2022-11-30T08:51:17.985Z,89.77
2022-11-30T08:52:18.632Z,90.08
2022-11-30T08:53:17.908Z,89.87
2022-11-30T08:54:17.563Z,89.56
2022-11-30T08:55:18.615Z,89.46
2022-11-30T08:56:18.303Z,89.46
2022-11-30T08:57:18.114Z,89.87
2022-11-30T08:58:18.134Z,89.98
2022-11-30T08:59:17.713Z,89.83
2022-11-30T09:00:18.075Z,89.52
2022-11-30T09:01:17.689Z,89.56
2022-11-30T09:02:17.368Z,89.46
2022-11-30T09:03:17.649Z,88.43
2022-11-30T09:04:17.139Z,88.02
2022-11-30T09:05:18.364Z,87.29
2022-11-30T09:06:18.085Z,87.81
2022-11-30T09:07:17.769Z,88.43
2022-11-30T09:08:18.544Z,87.81
2022-11-30T09:09:17.212Z,87.50
2022-11-30T09:10:17.912Z,87.81
2022-11-30T09:11:17.531Z,88.32
2022-11-30T09:12:16.892Z,88.22
2022-11-30T09:13:18.472Z,88.53
2022-11-30T09:14:17.280Z,88.84
2022-11-30T09:15:18.254Z,88.12
2022-11-30T09:16:17.152Z,89.05
2022-11-30T09:17:17.269Z,89.67
2022-11-30T09:18:17.169Z,89.46
2022-11-30T09:19:18.100Z,88.84
2022-11-30T09:20:17.609Z,88.84
2022-11-30T09:21:17.489Z,88.95
2022-11-30T09:22:17.705Z,88.53
2022-11-30T09:23:17.146Z,88.53
2022-11-30T09:24:16.933Z,87.81
2022-11-30T09:25:17.345Z,87.40
2022-11-30T09:26:17.069Z,86.98
2022-11-30T09:27:17.392Z,86.98
2022-11-30T09:28:16.788Z,88.32
2022-11-30T09:29:17.528Z,88.43
2022-11-30T09:30:17.115Z,87.60
2022-11-30T09:31:17.187Z,88.53
2022-11-30T09:32:16.973Z,89.46
2022-11-30T09:33:16.968Z,88.95
2022-11-30T09:34:17.283Z,89.25
2022-11-30T09:35:17.182Z,89.36
2022-11-30T09:36:17.071Z,88.95
2022-11-30T09:37:17.564Z,89.05
2022-11-30T09:38:17.009Z,89.05
2022-11-30T09:39:16.661Z,88.53
2022-11-30T09:40:16.692Z,88.53
2022-11-30T09:41:17.397Z,89.25
2022-11-30T09:42:16.833Z,89.98
2022-11-30T09:43:16.681Z,89.98
2022-11-30T09:44:16.719Z,89.36
2022-11-30T09:45:16.838Z,88.32
2022-11-30T09:46:18.165Z,87.92
2022-11-30T09:47:16.507Z,88.29
2022-11-30T09:48:16.482Z,88.70
2022-11-30T09:49:16.772Z,88.90
2022-11-30T09:50:16.625Z,88.70
2022-11-30T09:51:16.922Z,86.02
2022-11-30T09:52:17.447Z,86.02
2022-11-30T09:53:18.467Z,86.63
2022-11-30T09:54:17.223Z,87.05
2022-11-30T09:55:17.011Z,87.15
2022-11-30T09:56:16.720Z,86.02
2022-11-30T09:57:16.561Z,86.53
2022-11-30T09:58:16.548Z,86.94
2022-11-30T09:59:16.722Z,86.12
2022-11-30T10:00:16.771Z,86.84
2022-11-30T10:01:16.749Z,86.63
2022-11-30T10:02:16.643Z,86.32
2022-11-30T10:03:16.907Z,87.66
2022-11-30T10:04:16.958Z,87.98
2022-11-30T10:05:16.471Z,87.56
2022-11-30T10:06:16.962Z,87.98
2022-11-30T10:07:17.456Z,87.77
2022-11-30T10:08:18.255Z,88.08
2022-11-30T10:09:16.937Z,87.46
2022-11-30T10:10:34.030Z,87.26
2022-11-30T10:11:16.885Z,86.74
2022-11-30T10:12:16.913Z,86.43
2022-11-30T10:13:17.963Z,87.46
2022-11-30T10:14:16.810Z,87.26
2022-11-30T10:15:16.468Z,87.77
2022-11-30T10:16:16.878Z,87.21
2022-11-30T10:17:16.927Z,87.21
2022-11-30T10:18:16.328Z,87.73
2022-11-30T10:19:16.472Z,87.73
2022-11-30T10:20:16.368Z,87.01
2022-11-30T10:21:16.112Z,87.38
2022-11-30T10:22:16.124Z,85.73
2022-11-30T10:23:16.484Z,85.22
2022-11-30T10:24:15.864Z,84.91
2022-11-30T10:25:16.153Z,85.22
2022-11-30T10:26:16.138Z,85.59
2022-11-30T10:27:17.742Z,84.80
2022-11-30T10:28:45.108Z,84.49
2022-11-30T10:29:15.948Z,82.95
2022-11-30T10:30:16.105Z,83.77
2022-11-30T10:31:16.343Z,83.56
2022-11-30T10:32:16.341Z,83.98
2022-11-30T10:33:16.250Z,82.84
2022-11-30T10:34:16.458Z,83.05
2022-11-30T10:35:15.838Z,84.91
2022-11-30T10:36:16.060Z,85.31
2022-11-30T10:37:16.525Z,83.15
2022-11-30T10:38:16.671Z,82.74
2022-11-30T10:39:16.558Z,82.70
2022-11-30T10:40:16.195Z,82.19
2022-11-30T10:41:16.332Z,81.98
2022-11-30T10:42:16.869Z,82.29
2022-11-30T10:43:16.145Z,82.19
2022-11-30T10:44:17.555Z,82.70
2022-11-30T10:45:15.880Z,83.73
2022-11-30T10:46:17.316Z,83.94
2022-11-30T10:47:15.832Z,83.73
2022-11-30T10:48:15.684Z,82.40
2022-11-30T10:49:15.835Z,82.60
2022-11-30T10:50:15.812Z,82.43
2022-11-30T10:51:15.962Z,83.15
2022-11-30T10:52:15.785Z,84.39
2022-11-30T10:53:16.037Z,85.52
2022-11-30T10:54:16.093Z,85.67
2022-11-30T10:55:15.969Z,85.87
2022-11-30T10:56:15.651Z,86.18
2022-11-30T10:57:15.501Z,85.94
2022-11-30T10:58:15.687Z,84.74
2022-11-30T10:59:15.604Z,84.12
2022-11-30T11:00:15.984Z,85.22
2022-11-30T11:01:15.696Z,85.83
2022-11-30T11:02:15.616Z,83.71
2022-11-30T11:03:15.495Z,83.61
2022-11-30T11:04:15.829Z,84.53
2022-11-30T11:05:15.552Z,84.53
2022-11-30T11:06:15.345Z,85.46
2022-11-30T11:07:15.824Z,84.22
2022-11-30T11:08:15.623Z,83.50
2022-11-30T11:09:15.407Z,84.08
2022-11-30T11:10:15.881Z,84.49
2022-11-30T11:11:15.667Z,83.67
2022-11-30T11:12:15.395Z,83.67
2022-11-30T11:13:16.122Z,83.77
2022-11-30T11:14:15.846Z,84.29
2022-11-30T11:15:15.395Z,83.50
2022-11-30T11:16:15.368Z,83.87
2022-11-30T11:17:15.617Z,83.40
2022-11-30T11:18:15.244Z,81.96
2022-11-30T11:19:15.454Z,83.91
2022-11-30T11:20:15.140Z,82.98
2022-11-30T11:21:15.487Z,82.10
2022-11-30T11:22:15.107Z,82.20
2022-11-30T11:23:15.204Z,84.22
2022-11-30T11:24:15.122Z,83.50
2022-11-30T11:25:15.251Z,82.98
2022-11-30T11:26:15.113Z,83.81
2022-11-30T11:27:15.370Z,84.74
2022-11-30T11:28:15.077Z,83.50
2022-11-30T11:29:15.252Z,83.19
2022-11-30T11:30:14.984Z,82.16
2022-11-30T11:31:15.426Z,82.89
2022-11-30T11:32:15.044Z,83.40
2022-11-30T11:33:15.132Z,83.09
2022-11-30T11:34:15.457Z,83.71
2022-11-30T11:35:15.151Z,83.95
2022-11-30T11:36:15.083Z,83.54
2022-11-30T11:37:15.073Z,84.99
2022-11-30T11:38:14.988Z,84.22
2022-11-30T11:39:15.859Z,83.71
2022-11-30T11:40:14.976Z,84.01
2022-11-30T11:41:15.504Z,84.22
2022-11-30T11:42:17.833Z,84.43
2022-11-30T11:43:15.120Z,83.40
2022-11-30T11:44:15.173Z,83.91
2022-11-30T11:45:15.151Z,83.40
2022-11-30T11:46:15.297Z,82.89
2022-11-30T11:47:15.002Z,83.61
2022-11-30T11:48:15.496Z,83.09
2022-11-30T11:49:14.874Z,83.71
2022-11-30T11:50:14.867Z,82.98
2022-11-30T11:51:15.369Z,81.85
2022-11-30T11:52:15.005Z,82.20
2022-11-30T11:53:14.953Z,82.40
2022-11-30T11:54:20.992Z,84.33
2022-11-30T11:55:14.790Z,84.22
2022-11-30T11:56:15.065Z,82.61
2022-11-30T11:57:15.760Z,84.12
2022-11-30T11:58:14.728Z,84.53
2022-11-30T11:59:15.220Z,83.91
2022-11-30T12:00:16.279Z,84.53
2022-11-30T12:01:39.220Z,84.84
2022-11-30T12:02:15.277Z,83.71
2022-11-30T12:03:16.275Z,83.50
2022-11-30T12:04:15.358Z,83.23
2022-11-30T12:05:15.476Z,83.75
2022-11-30T12:06:15.494Z,84.57
2022-11-30T12:07:18.116Z,84.06
2022-11-30T12:08:14.762Z,84.67
2022-11-30T12:09:14.859Z,84.16
2022-11-30T12:10:43.641Z,84.47
2022-11-30T12:11:14.627Z,83.13
2022-11-30T12:12:21.529Z,83.44
2022-11-30T12:13:14.889Z,84.57
2022-11-30T12:14:15.480Z,83.33
2022-11-30T12:15:14.672Z,83.64
2022-11-30T12:16:14.841Z,83.95
2022-11-30T12:17:15.020Z,84.99
2022-11-30T12:18:22.329Z,85.09
2022-11-30T12:19:14.406Z,84.27
2022-11-30T12:20:14.643Z,84.36
2022-11-30T12:21:14.591Z,84.88
2022-11-30T12:22:14.478Z,85.50
2022-11-30T12:23:15.534Z,86.29
2022-11-30T12:24:14.698Z,85.25
2022-11-30T12:25:15.759Z,83.09
2022-11-30T12:26:15.059Z,83.29
2022-11-30T12:27:14.423Z,83.91
2022-11-30T12:28:14.893Z,83.71
2022-11-30T12:29:14.782Z,84.43
2022-11-30T12:30:14.979Z,83.71
2022-11-30T12:31:15.130Z,84.12
2022-11-30T12:32:14.832Z,84.74
2022-11-30T12:33:15.171Z,83.77
2022-11-30T12:34:14.576Z,83.26
2022-11-30T12:35:14.642Z,83.26
2022-11-30T12:36:15.168Z,83.15
2022-11-30T12:37:14.557Z,83.56
2022-11-30T12:38:14.412Z,84.39
2022-11-30T12:39:14.319Z,84.70
2022-11-30T12:40:14.538Z,84.49
2022-11-30T12:41:14.671Z,83.67
2022-11-30T12:42:15.502Z,84.08
2022-11-30T12:43:15.076Z,83.67
2022-11-30T12:44:15.024Z,83.56
2022-11-30T12:45:14.302Z,82.84
2022-11-30T12:46:14.490Z,83.15
2022-11-30T12:47:14.728Z,83.15
2022-11-30T12:48:14.572Z,83.36
2022-11-30T12:49:14.393Z,83.98
2022-11-30T12:50:14.193Z,84.49
2022-11-30T12:51:14.554Z,85.83
2022-11-30T12:52:15.544Z,84.19
2022-11-30T12:53:15.127Z,85.52
2022-11-30T12:54:14.962Z,84.91